sensor_id;sensor_type;location;lat;lon;timestamp;P1;durP1;ratioP1;P2;durP2;ratioP2
1503;SDS011;743;47.076;15.494;2023-02-26T00:01:49;354.15;;;122.78;;
1503;SDS011;743;47.076;15.494;2023-02-26T00:04:16;338.98;;;122.95;;
1503;SDS011;743;47.076;15.494;2023-02-26T00:06:47;351.65;;;123.97;;
1503;SDS011;743;47.076;15.494;2023-02-26T00:09:22;335.25;;;120.15;;
1503;SDS011;743;47.076;15.494;2023-02-26T00:11:53;380.40;;;164.65;;
1503;SDS011;743;47.076;15.494;2023-02-26T00:16:50;370.92;;;126.55;;
1503;SDS011;743;47.076;15.494;2023-02-26T00:19:24;350.60;;;119.00;;
1503;SDS011;743;47.076;15.494;2023-02-26T00:21:53;361.00;;;119.72;;
1503;SDS011;743;47.076;15.494;2023-02-26T00:24:25;364.10;;;124.57;;
1503;SDS011;743;47.076;15.494;2023-02-26T00:26:55;374.77;;;125.72;;
1503;SDS011;743;47.076;15.494;2023-02-26T00:29:24;355.58;;;124.50;;
1503;SDS011;743;47.076;15.494;2023-02-26T00:31:52;362.02;;;121.13;;
1503;SDS011;743;47.076;15.494;2023-02-26T00:34:26;366.25;;;124.22;;
1503;SDS011;743;47.076;15.494;2023-02-26T00:36:57;349.27;;;120.70;;
1503;SDS011;743;47.076;15.494;2023-02-26T00:39:39;363.70;;;124.88;;
1503;SDS011;743;47.076;15.494;2023-02-26T00:42:18;350.65;;;124.20;;
1503;SDS011;743;47.076;15.494;2023-02-26T00:44:49;355.02;;;121.93;;
1503;SDS011;743;47.076;15.494;2023-02-26T00:47:20;350.38;;;118.82;;
1503;SDS011;743;47.076;15.494;2023-02-26T00:50:00;359.58;;;120.43;;
1503;SDS011;743;47.076;15.494;2023-02-26T00:52:53;342.67;;;114.35;;
1503;SDS011;743;47.076;15.494;2023-02-26T00:55:30;339.00;;;114.88;;
1503;SDS011;743;47.076;15.494;2023-02-26T00:58:06;345.60;;;115.70;;
1503;SDS011;743;47.076;15.494;2023-02-26T01:00:36;339.02;;;115.35;;
1503;SDS011;743;47.076;15.494;2023-02-26T01:03:05;347.52;;;115.60;;
1503;SDS011;743;47.076;15.494;2023-02-26T01:05:37;345.70;;;116.32;;
1503;SDS011;743;47.076;15.494;2023-02-26T01:08:10;348.75;;;116.75;;
1503;SDS011;743;47.076;15.494;2023-02-26T01:10:44;337.75;;;112.40;;
1503;SDS011;743;47.076;15.494;2023-02-26T01:13:13;351.10;;;115.88;;
1503;SDS011;743;47.076;15.494;2023-02-26T01:15:43;340.15;;;114.57;;
1503;SDS011;743;47.076;15.494;2023-02-26T01:18:17;344.20;;;113.50;;
1503;SDS011;743;47.076;15.494;2023-02-26T01:20:50;334.88;;;111.43;;
1503;SDS011;743;47.076;15.494;2023-02-26T01:23:28;335.92;;;110.13;;
1503;SDS011;743;47.076;15.494;2023-02-26T01:26:04;335.10;;;111.80;;
1503;SDS011;743;47.076;15.494;2023-02-26T01:28:42;327.92;;;107.45;;
1503;SDS011;743;47.076;15.494;2023-02-26T01:31:22;335.05;;;111.45;;
1503;SDS011;743;47.076;15.494;2023-02-26T01:34:03;343.92;;;114.68;;
1503;SDS011;743;47.076;15.494;2023-02-26T01:36:38;341.98;;;116.93;;
1503;SDS011;743;47.076;15.494;2023-02-26T01:39:13;348.05;;;114.85;;
1503;SDS011;743;47.076;15.494;2023-02-26T01:41:53;246.57;;;81.63;;
1503;SDS011;743;47.076;15.494;2023-02-26T01:44:43;339.70;;;112.50;;
1503;SDS011;743;47.076;15.494;2023-02-26T01:47:21;336.92;;;110.68;;
1503;SDS011;743;47.076;15.494;2023-02-26T01:49:55;343.35;;;113.10;;
1503;SDS011;743;47.076;15.494;2023-02-26T01:55:36;280.45;;;107.38;;
1503;SDS011;743;47.076;15.494;2023-02-26T01:58:23;280.35;;;107.20;;
1503;SDS011;743;47.076;15.494;2023-02-26T02:00:58;332.35;;;117.45;;
1503;SDS011;743;47.076;15.494;2023-02-26T02:03:29;344.33;;;119.95;;
1503;SDS011;743;47.076;15.494;2023-02-26T02:06:05;329.67;;;113.07;;
1503;SDS011;743;47.076;15.494;2023-02-26T02:08:37;330.90;;;116.18;;
1503;SDS011;743;47.076;15.494;2023-02-26T02:11:10;316.08;;;106.40;;
1503;SDS011;743;47.076;15.494;2023-02-26T02:13:56;325.80;;;112.90;;
1503;SDS011;743;47.076;15.494;2023-02-26T02:16:38;320.48;;;110.00;;
1503;SDS011;743;47.076;15.494;2023-02-26T02:19:19;334.10;;;116.35;;
1503;SDS011;743;47.076;15.494;2023-02-26T02:22:19;330.38;;;115.00;;
1503;SDS011;743;47.076;15.494;2023-02-26T02:25:32;324.02;;;108.78;;
1503;SDS011;743;47.076;15.494;2023-02-26T02:28:23;317.50;;;107.20;;
1503;SDS011;743;47.076;15.494;2023-02-26T02:31:14;318.58;;;107.45;;
1503;SDS011;743;47.076;15.494;2023-02-26T02:33:48;325.40;;;110.43;;
1503;SDS011;743;47.076;15.494;2023-02-26T02:36:21;334.45;;;117.30;;
1503;SDS011;743;47.076;15.494;2023-02-26T02:38:56;339.75;;;118.57;;
1503;SDS011;743;47.076;15.494;2023-02-26T02:41:31;318.13;;;110.15;;
1503;SDS011;743;47.076;15.494;2023-02-26T02:44:07;319.13;;;111.70;;
1503;SDS011;743;47.076;15.494;2023-02-26T02:46:42;324.20;;;113.90;;
1503;SDS011;743;47.076;15.494;2023-02-26T02:49:13;317.65;;;112.93;;
1503;SDS011;743;47.076;15.494;2023-02-26T02:51:51;305.77;;;110.05;;
1503;SDS011;743;47.076;15.494;2023-02-26T02:54:23;319.90;;;111.65;;
1503;SDS011;743;47.076;15.494;2023-02-26T02:56:57;317.92;;;112.32;;
1503;SDS011;743;47.076;15.494;2023-02-26T02:59:36;311.90;;;108.53;;
1503;SDS011;743;47.076;15.494;2023-02-26T03:04:53;313.65;;;109.35;;
1503;SDS011;743;47.076;15.494;2023-02-26T03:07:21;303.98;;;105.55;;
1503;SDS011;743;47.076;15.494;2023-02-26T03:09:50;213.20;;;73.80;;
1503;SDS011;743;47.076;15.494;2023-02-26T03:12:19;302.70;;;104.30;;
1503;SDS011;743;47.076;15.494;2023-02-26T03:14:47;312.00;;;109.70;;
1503;SDS011;743;47.076;15.494;2023-02-26T03:17:19;299.40;;;105.18;;
1503;SDS011;743;47.076;15.494;2023-02-26T03:19:58;306.75;;;106.10;;
1503;SDS011;743;47.076;15.494;2023-02-26T03:22:40;314.85;;;111.97;;
1503;SDS011;743;47.076;15.494;2023-02-26T03:25:13;308.40;;;112.60;;
1503;SDS011;743;47.076;15.494;2023-02-26T03:27:46;308.40;;;111.50;;
1503;SDS011;743;47.076;15.494;2023-02-26T03:30:21;305.80;;;111.57;;
1503;SDS011;743;47.076;15.494;2023-02-26T03:33:02;316.05;;;113.18;;
1503;SDS011;743;47.076;15.494;2023-02-26T03:35:43;314.95;;;111.30;;
1503;SDS011;743;47.076;15.494;2023-02-26T03:38:21;299.80;;;108.00;;
1503;SDS011;743;47.076;15.494;2023-02-26T03:40:59;309.42;;;112.90;;
1503;SDS011;743;47.076;15.494;2023-02-26T03:43:32;308.90;;;114.30;;
1503;SDS011;743;47.076;15.494;2023-02-26T03:46:03;295.50;;;105.82;;
1503;SDS011;743;47.076;15.494;2023-02-26T03:48:37;316.10;;;113.38;;
1503;SDS011;743;47.076;15.494;2023-02-26T03:51:11;294.65;;;107.82;;
1503;SDS011;743;47.076;15.494;2023-02-26T03:53:44;310.83;;;112.22;;
1503;SDS011;743;47.076;15.494;2023-02-26T03:56:18;304.17;;;110.70;;
1503;SDS011;743;47.076;15.494;2023-02-26T03:58:51;315.45;;;113.70;;
1503;SDS011;743;47.076;15.494;2023-02-26T04:01:21;218.00;;;79.28;;
1503;SDS011;743;47.076;15.494;2023-02-26T04:03:56;304.27;;;107.38;;
1503;SDS011;743;47.076;15.494;2023-02-26T04:06:29;305.77;;;112.43;;
1503;SDS011;743;47.076;15.494;2023-02-26T04:08:58;294.70;;;105.47;;
1503;SDS011;743;47.076;15.494;2023-02-26T04:11:28;306.88;;;111.90;;
1503;SDS011;743;47.076;15.494;2023-02-26T04:13:56;215.93;;;77.72;;
1503;SDS011;743;47.076;15.494;2023-02-26T04:16:24;293.65;;;103.82;;
1503;SDS011;743;47.076;15.494;2023-02-26T04:18:54;304.40;;;109.03;;
1503;SDS011;743;47.076;15.494;2023-02-26T04:21:22;296.38;;;109.65;;
1503;SDS011;743;47.076;15.494;2023-02-26T04:23:52;290.80;;;107.65;;
1503;SDS011;743;47.076;15.494;2023-02-26T04:26:22;298.65;;;110.93;;
1503;SDS011;743;47.076;15.494;2023-02-26T04:28:51;294.65;;;107.75;;
1503;SDS011;743;47.076;15.494;2023-02-26T04:31:18;284.83;;;103.30;;
1503;SDS011;743;47.076;15.494;2023-02-26T04:33:46;302.10;;;109.63;;
1503;SDS011;743;47.076;15.494;2023-02-26T04:36:15;289.85;;;106.35;;
1503;SDS011;743;47.076;15.494;2023-02-26T04:38:45;302.27;;;106.93;;
1503;SDS011;743;47.076;15.494;2023-02-26T04:41:13;304.88;;;107.25;;
1503;SDS011;743;47.076;15.494;2023-02-26T04:43:42;293.55;;;107.13;;
1503;SDS011;743;47.076;15.494;2023-02-26T04:46:13;300.10;;;108.97;;
1503;SDS011;743;47.076;15.494;2023-02-26T04:48:40;255.07;;;101.47;;
1503;SDS011;743;47.076;15.494;2023-02-26T04:51:08;298.20;;;107.95;;
1503;SDS011;743;47.076;15.494;2023-02-26T04:53:37;297.75;;;110.35;;
1503;SDS011;743;47.076;15.494;2023-02-26T04:56:04;296.50;;;109.78;;
1503;SDS011;743;47.076;15.494;2023-02-26T04:58:32;304.50;;;109.15;;
1503;SDS011;743;47.076;15.494;2023-02-26T05:01:02;306.65;;;114.68;;
1503;SDS011;743;47.076;15.494;2023-02-26T05:03:29;297.45;;;112.10;;
1503;SDS011;743;47.076;15.494;2023-02-26T05:05:58;290.15;;;108.85;;
1503;SDS011;743;47.076;15.494;2023-02-26T05:08:27;289.45;;;105.28;;
1503;SDS011;743;47.076;15.494;2023-02-26T05:10:56;297.15;;;107.85;;
1503;SDS011;743;47.076;15.494;2023-02-26T05:13:28;288.67;;;104.28;;
1503;SDS011;743;47.076;15.494;2023-02-26T05:15:56;303.70;;;112.13;;
1503;SDS011;743;47.076;15.494;2023-02-26T05:18:26;295.95;;;106.45;;
1503;SDS011;743;47.076;15.494;2023-02-26T05:20:57;303.33;;;111.20;;
1503;SDS011;743;47.076;15.494;2023-02-26T05:23:25;289.25;;;105.70;;
1503;SDS011;743;47.076;15.494;2023-02-26T05:25:56;290.23;;;110.15;;
1503;SDS011;743;47.076;15.494;2023-02-26T05:28:25;295.20;;;112.38;;
1503;SDS011;743;47.076;15.494;2023-02-26T05:30:54;291.88;;;107.18;;
1503;SDS011;743;47.076;15.494;2023-02-26T05:35:51;209.55;;;76.95;;
1503;SDS011;743;47.076;15.494;2023-02-26T05:38:20;275.00;;;99.07;;
1503;SDS011;743;47.076;15.494;2023-02-26T05:40:49;291.13;;;109.15;;
1503;SDS011;743;47.076;15.494;2023-02-26T05:43:23;238.05;;;102.88;;
1503;SDS011;743;47.076;15.494;2023-02-26T05:45:53;280.08;;;102.95;;
1503;SDS011;743;47.076;15.494;2023-02-26T05:48:22;291.23;;;106.05;;
1503;SDS011;743;47.076;15.494;2023-02-26T05:50:50;287.13;;;107.35;;
1503;SDS011;743;47.076;15.494;2023-02-26T05:53:18;291.52;;;105.93;;
1503;SDS011;743;47.076;15.494;2023-02-26T05:55:46;287.50;;;106.53;;
1503;SDS011;743;47.076;15.494;2023-02-26T05:58:16;298.17;;;109.97;;
1503;SDS011;743;47.076;15.494;2023-02-26T06:00:47;283.92;;;109.55;;
1503;SDS011;743;47.076;15.494;2023-02-26T06:03:17;282.23;;;103.13;;
1503;SDS011;743;47.076;15.494;2023-02-26T06:05:47;282.00;;;104.88;;
1503;SDS011;743;47.076;15.494;2023-02-26T06:08:16;301.88;;;111.80;;
1503;SDS011;743;47.076;15.494;2023-02-26T06:10:46;280.73;;;105.30;;
1503;SDS011;743;47.076;15.494;2023-02-26T06:13:17;279.98;;;102.10;;
1503;SDS011;743;47.076;15.494;2023-02-26T06:15:54;282.98;;;107.22;;
1503;SDS011;743;47.076;15.494;2023-02-26T06:18:26;279.95;;;106.03;;
1503;SDS011;743;47.076;15.494;2023-02-26T06:20:54;284.10;;;106.03;;
1503;SDS011;743;47.076;15.494;2023-02-26T06:23:24;288.65;;;110.82;;
1503;SDS011;743;47.076;15.494;2023-02-26T06:25:54;302.67;;;115.55;;
1503;SDS011;743;47.076;15.494;2023-02-26T06:30:56;194.35;;;100.47;;
1503;SDS011;743;47.076;15.494;2023-02-26T06:33:23;104.88;;;81.32;;
1503;SDS011;743;47.076;15.494;2023-02-26T06:35:51;108.28;;;84.93;;
1503;SDS011;743;47.076;15.494;2023-02-26T06:38:24;117.90;;;88.82;;
1503;SDS011;743;47.076;15.494;2023-02-26T06:40:58;280.77;;;131.30;;
1503;SDS011;743;47.076;15.494;2023-02-26T06:43:25;133.30;;;100.93;;
1503;SDS011;743;47.076;15.494;2023-02-26T06:45:58;301.70;;;132.38;;
1503;SDS011;743;47.076;15.494;2023-02-26T06:48:26;298.60;;;129.27;;
1503;SDS011;743;47.076;15.494;2023-02-26T06:50:54;306.00;;;128.07;;
1503;SDS011;743;47.076;15.494;2023-02-26T06:53:22;303.00;;;128.93;;
1503;SDS011;743;47.076;15.494;2023-02-26T06:55:52;303.13;;;126.53;;
1503;SDS011;743;47.076;15.494;2023-02-26T06:58:22;340.38;;;135.05;;
1503;SDS011;743;47.076;15.494;2023-02-26T07:00:55;256.17;;;126.63;;
1503;SDS011;743;47.076;15.494;2023-02-26T07:03:26;279.38;;;136.73;;
1503;SDS011;743;47.076;15.494;2023-02-26T07:05:54;285.98;;;134.48;;
1503;SDS011;743;47.076;15.494;2023-02-26T07:08:24;284.50;;;136.48;;
1503;SDS011;743;47.076;15.494;2023-02-26T07:11:21;268.40;;;133.68;;
1503;SDS011;743;47.076;15.494;2023-02-26T07:13:52;282.75;;;138.95;;
1503;SDS011;743;47.076;15.494;2023-02-26T07:16:24;278.38;;;133.55;;
1503;SDS011;743;47.076;15.494;2023-02-26T07:18:52;291.98;;;140.23;;
1503;SDS011;743;47.076;15.494;2023-02-26T07:21:20;283.90;;;134.73;;
1503;SDS011;743;47.076;15.494;2023-02-26T07:23:48;274.80;;;127.72;;
1503;SDS011;743;47.076;15.494;2023-02-26T07:26:16;332.27;;;137.65;;
1503;SDS011;743;47.076;15.494;2023-02-26T07:28:43;322.05;;;142.95;;
1503;SDS011;743;47.076;15.494;2023-02-26T07:31:10;291.90;;;143.27;;
1503;SDS011;743;47.076;15.494;2023-02-26T07:33:43;316.40;;;144.48;;
1503;SDS011;743;47.076;15.494;2023-02-26T07:36:10;285.27;;;146.98;;
1503;SDS011;743;47.076;15.494;2023-02-26T07:38:38;296.00;;;155.20;;
1503;SDS011;743;47.076;15.494;2023-02-26T07:41:07;316.13;;;157.98;;
1503;SDS011;743;47.076;15.494;2023-02-26T07:43:34;284.98;;;150.55;;
1503;SDS011;743;47.076;15.494;2023-02-26T07:46:02;285.88;;;152.07;;
1503;SDS011;743;47.076;15.494;2023-02-26T07:48:30;284.70;;;148.90;;
1503;SDS011;743;47.076;15.494;2023-02-26T07:51:00;303.00;;;157.20;;
1503;SDS011;743;47.076;15.494;2023-02-26T07:53:28;284.52;;;138.48;;
1503;SDS011;743;47.076;15.494;2023-02-26T07:55:56;326.77;;;146.15;;
1503;SDS011;743;47.076;15.494;2023-02-26T07:58:23;282.77;;;135.60;;
1503;SDS011;743;47.076;15.494;2023-02-26T08:00:51;294.25;;;142.90;;
1503;SDS011;743;47.076;15.494;2023-02-26T08:03:19;278.98;;;139.90;;
1503;SDS011;743;47.076;15.494;2023-02-26T08:05:46;280.27;;;131.40;;
1503;SDS011;743;47.076;15.494;2023-02-26T08:08:16;296.70;;;133.60;;
1503;SDS011;743;47.076;15.494;2023-02-26T08:10:43;354.67;;;153.15;;
1503;SDS011;743;47.076;15.494;2023-02-26T08:13:13;268.27;;;143.02;;
1503;SDS011;743;47.076;15.494;2023-02-26T08:15:44;313.15;;;155.52;;
1503;SDS011;743;47.076;15.494;2023-02-26T08:20:43;293.33;;;151.60;;
1503;SDS011;743;47.076;15.494;2023-02-26T08:23:12;200.75;;;106.50;;
1503;SDS011;743;47.076;15.494;2023-02-26T08:25:41;275.08;;;147.98;;
1503;SDS011;743;47.076;15.494;2023-02-26T08:28:09;282.95;;;147.55;;
1503;SDS011;743;47.076;15.494;2023-02-26T08:30:37;279.08;;;147.00;;
1503;SDS011;743;47.076;15.494;2023-02-26T08:33:05;204.17;;;101.93;;
1503;SDS011;743;47.076;15.494;2023-02-26T08:35:33;283.00;;;144.02;;
1503;SDS011;743;47.076;15.494;2023-02-26T08:38:00;284.33;;;143.20;;
1503;SDS011;743;47.076;15.494;2023-02-26T08:40:28;266.17;;;130.45;;
1503;SDS011;743;47.076;15.494;2023-02-26T08:42:57;281.45;;;133.35;;
1503;SDS011;743;47.076;15.494;2023-02-26T08:45:24;270.90;;;128.20;;
1503;SDS011;743;47.076;15.494;2023-02-26T08:47:53;198.18;;;90.80;;
1503;SDS011;743;47.076;15.494;2023-02-26T08:50:21;286.40;;;132.07;;
1503;SDS011;743;47.076;15.494;2023-02-26T08:52:49;284.85;;;132.05;;
1503;SDS011;743;47.076;15.494;2023-02-26T08:55:17;270.65;;;129.95;;
1503;SDS011;743;47.076;15.494;2023-02-26T08:57:47;285.60;;;127.93;;
1503;SDS011;743;47.076;15.494;2023-02-26T09:00:20;218.50;;;116.20;;
1503;SDS011;743;47.076;15.494;2023-02-26T09:05:39;244.23;;;120.88;;
1503;SDS011;743;47.076;15.494;2023-02-26T09:08:08;283.50;;;124.43;;
1503;SDS011;743;47.076;15.494;2023-02-26T09:10:41;282.40;;;125.15;;
1503;SDS011;743;47.076;15.494;2023-02-26T09:13:09;281.70;;;124.22;;
1503;SDS011;743;47.076;15.494;2023-02-26T09:15:42;278.73;;;125.90;;
1503;SDS011;743;47.076;15.494;2023-02-26T09:18:12;286.25;;;127.28;;
1503;SDS011;743;47.076;15.494;2023-02-26T09:20:42;267.83;;;122.18;;
1503;SDS011;743;47.076;15.494;2023-02-26T09:23:12;276.05;;;134.20;;
1503;SDS011;743;47.076;15.494;2023-02-26T09:25:40;261.35;;;122.75;;
1503;SDS011;743;47.076;15.494;2023-02-26T09:28:08;303.75;;;135.18;;
1503;SDS011;743;47.076;15.494;2023-02-26T09:30:37;283.38;;;132.82;;
1503;SDS011;743;47.076;15.494;2023-02-26T09:33:08;283.05;;;127.70;;
1503;SDS011;743;47.076;15.494;2023-02-26T09:35:42;283.85;;;124.78;;
1503;SDS011;743;47.076;15.494;2023-02-26T09:38:14;289.90;;;131.82;;
1503;SDS011;743;47.076;15.494;2023-02-26T09:40:45;267.85;;;121.63;;
1503;SDS011;743;47.076;15.494;2023-02-26T09:43:22;289.55;;;133.00;;
1503;SDS011;743;47.076;15.494;2023-02-26T09:46:08;277.27;;;126.68;;
1503;SDS011;743;47.076;15.494;2023-02-26T09:48:45;264.15;;;124.72;;
1503;SDS011;743;47.076;15.494;2023-02-26T09:51:16;281.80;;;127.78;;
1503;SDS011;743;47.076;15.494;2023-02-26T09:53:47;274.25;;;127.88;;
1503;SDS011;743;47.076;15.494;2023-02-26T09:56:20;274.92;;;125.32;;
1503;SDS011;743;47.076;15.494;2023-02-26T09:58:53;280.40;;;131.82;;
1503;SDS011;743;47.076;15.494;2023-02-26T10:01:25;284.13;;;133.00;;
1503;SDS011;743;47.076;15.494;2023-02-26T10:04:05;277.80;;;130.32;;
1503;SDS011;743;47.076;15.494;2023-02-26T10:06:41;293.13;;;132.15;;
1503;SDS011;743;47.076;15.494;2023-02-26T10:09:29;287.90;;;129.93;;
1503;SDS011;743;47.076;15.494;2023-02-26T10:12:08;283.80;;;127.03;;
1503;SDS011;743;47.076;15.494;2023-02-26T10:14:41;296.38;;;132.07;;
1503;SDS011;743;47.076;15.494;2023-02-26T10:17:18;284.30;;;126.68;;
1503;SDS011;743;47.076;15.494;2023-02-26T10:19:52;285.05;;;129.02;;
1503;SDS011;743;47.076;15.494;2023-02-26T10:22:25;299.30;;;133.93;;
1503;SDS011;743;47.076;15.494;2023-02-26T10:24:57;270.55;;;120.00;;
1503;SDS011;743;47.076;15.494;2023-02-26T10:27:34;269.08;;;120.20;;
1503;SDS011;743;47.076;15.494;2023-02-26T10:30:12;278.73;;;123.45;;
1503;SDS011;743;47.076;15.494;2023-02-26T10:32:49;286.20;;;123.10;;
1503;SDS011;743;47.076;15.494;2023-02-26T10:35:30;292.10;;;130.35;;
1503;SDS011;743;47.076;15.494;2023-02-26T10:38:04;281.20;;;121.30;;
1503;SDS011;743;47.076;15.494;2023-02-26T10:40:38;281.80;;;129.45;;
1503;SDS011;743;47.076;15.494;2023-02-26T10:43:12;296.70;;;134.20;;
1503;SDS011;743;47.076;15.494;2023-02-26T10:45:48;283.83;;;126.72;;
1503;SDS011;743;47.076;15.494;2023-02-26T10:48:33;290.27;;;132.38;;
1503;SDS011;743;47.076;15.494;2023-02-26T10:51:16;272.67;;;124.35;;
1503;SDS011;743;47.076;15.494;2023-02-26T10:53:48;278.55;;;124.70;;
1503;SDS011;743;47.076;15.494;2023-02-26T10:56:21;274.27;;;123.13;;
1503;SDS011;743;47.076;15.494;2023-02-26T10:58:53;277.67;;;130.68;;
1503;SDS011;743;47.076;15.494;2023-02-26T11:01:21;266.75;;;119.20;;
1503;SDS011;743;47.076;15.494;2023-02-26T11:03:53;268.27;;;119.55;;
1503;SDS011;743;47.076;15.494;2023-02-26T11:06:32;286.75;;;126.93;;
1503;SDS011;743;47.076;15.494;2023-02-26T11:09:13;296.05;;;129.30;;
1503;SDS011;743;47.076;15.494;2023-02-26T11:11:48;269.52;;;117.82;;
1503;SDS011;743;47.076;15.494;2023-02-26T11:14:19;266.17;;;115.43;;
1503;SDS011;743;47.076;15.494;2023-02-26T11:16:49;278.10;;;120.70;;
1503;SDS011;743;47.076;15.494;2023-02-26T11:19:24;274.00;;;119.55;;
1503;SDS011;743;47.076;15.494;2023-02-26T11:21:55;284.20;;;125.07;;
1503;SDS011;743;47.076;15.494;2023-02-26T11:24:27;280.98;;;122.63;;
1503;SDS011;743;47.076;15.494;2023-02-26T11:27:02;292.75;;;130.85;;
1503;SDS011;743;47.076;15.494;2023-02-26T11:29:36;276.98;;;120.32;;
1503;SDS011;743;47.076;15.494;2023-02-26T11:32:13;287.60;;;126.78;;
1503;SDS011;743;47.076;15.494;2023-02-26T11:34:47;291.30;;;126.22;;
1503;SDS011;743;47.076;15.494;2023-02-26T11:37:21;289.02;;;127.05;;
1503;SDS011;743;47.076;15.494;2023-02-26T11:39:56;291.98;;;131.07;;
1503;SDS011;743;47.076;15.494;2023-02-26T11:42:39;287.55;;;128.15;;
1503;SDS011;743;47.076;15.494;2023-02-26T11:45:12;270.50;;;120.10;;
1503;SDS011;743;47.076;15.494;2023-02-26T11:47:47;275.35;;;122.18;;
1503;SDS011;743;47.076;15.494;2023-02-26T11:50:24;259.83;;;114.43;;
1503;SDS011;743;47.076;15.494;2023-02-26T11:52:56;280.95;;;121.47;;
1503;SDS011;743;47.076;15.494;2023-02-26T11:55:33;308.85;;;124.68;;
1503;SDS011;743;47.076;15.494;2023-02-26T11:58:09;261.92;;;115.90;;
1503;SDS011;743;47.076;15.494;2023-02-26T12:00:46;272.63;;;121.53;;
1503;SDS011;743;47.076;15.494;2023-02-26T12:03:17;263.35;;;118.68;;
1503;SDS011;743;47.076;15.494;2023-02-26T12:05:49;271.77;;;125.18;;
1503;SDS011;743;47.076;15.494;2023-02-26T12:08:22;268.27;;;120.65;;
1503;SDS011;743;47.076;15.494;2023-02-26T12:10:58;272.10;;;122.60;;
1503;SDS011;743;47.076;15.494;2023-02-26T12:13:37;281.08;;;118.28;;
1503;SDS011;743;47.076;15.494;2023-02-26T12:16:15;286.50;;;124.00;;
1503;SDS011;743;47.076;15.494;2023-02-26T12:18:53;277.20;;;119.47;;
1503;SDS011;743;47.076;15.494;2023-02-26T12:27:53;263.55;;;110.13;;
1503;SDS011;743;47.076;15.494;2023-02-26T12:33:54;284.42;;;116.53;;
1503;SDS011;743;47.076;15.494;2023-02-26T12:36:37;281.13;;;114.20;;
1503;SDS011;743;47.076;15.494;2023-02-26T12:39:23;272.50;;;111.13;;
1503;SDS011;743;47.076;15.494;2023-02-26T12:42:02;280.38;;;112.97;;
1503;SDS011;743;47.076;15.494;2023-02-26T12:44:50;302.13;;;124.57;;
1503;SDS011;743;47.076;15.494;2023-02-26T12:47:39;292.33;;;119.85;;
1503;SDS011;743;47.076;15.494;2023-02-26T12:50:27;300.27;;;124.60;;
1503;SDS011;743;47.076;15.494;2023-02-26T12:53:26;312.38;;;132.65;;
1503;SDS011;743;47.076;15.494;2023-02-26T12:56:12;289.45;;;119.85;;
1503;SDS011;743;47.076;15.494;2023-02-26T12:59:11;311.70;;;134.18;;
1503;SDS011;743;47.076;15.494;2023-02-26T13:02:08;307.83;;;129.25;;
1503;SDS011;743;47.076;15.494;2023-02-26T13:05:06;304.65;;;132.27;;
1503;SDS011;743;47.076;15.494;2023-02-26T13:07:50;286.38;;;125.13;;
1503;SDS011;743;47.076;15.494;2023-02-26T13:10:28;293.17;;;122.28;;
1503;SDS011;743;47.076;15.494;2023-02-26T13:13:10;209.18;;;85.47;;
1503;SDS011;743;47.076;15.494;2023-02-26T13:16:03;311.67;;;136.38;;
1503;SDS011;743;47.076;15.494;2023-02-26T13:18:46;316.35;;;136.38;;
1503;SDS011;743;47.076;15.494;2023-02-26T13:21:22;322.05;;;139.88;;
1503;SDS011;743;47.076;15.494;2023-02-26T13:23:59;305.02;;;136.13;;
1503;SDS011;743;47.076;15.494;2023-02-26T13:26:32;247.47;;;123.90;;
1503;SDS011;743;47.076;15.494;2023-02-26T13:29:04;214.40;;;129.23;;
1503;SDS011;743;47.076;15.494;2023-02-26T13:31:43;301.60;;;151.93;;
1503;SDS011;743;47.076;15.494;2023-02-26T13:34:30;281.52;;;142.38;;
1503;SDS011;743;47.076;15.494;2023-02-26T13:37:14;250.50;;;128.27;;
1503;SDS011;743;47.076;15.494;2023-02-26T13:39:49;342.63;;;152.63;;
1503;SDS011;743;47.076;15.494;2023-02-26T13:42:27;317.92;;;145.52;;
1503;SDS011;743;47.076;15.494;2023-02-26T13:45:17;288.50;;;146.93;;
1503;SDS011;743;47.076;15.494;2023-02-26T13:48:03;308.33;;;155.32;;
1503;SDS011;743;47.076;15.494;2023-02-26T13:50:41;325.98;;;162.50;;
1503;SDS011;743;47.076;15.494;2023-02-26T13:53:33;302.88;;;157.77;;
1503;SDS011;743;47.076;15.494;2023-02-26T13:56:15;283.45;;;151.75;;
1503;SDS011;743;47.076;15.494;2023-02-26T13:58:51;283.95;;;147.20;;
1503;SDS011;743;47.076;15.494;2023-02-26T14:01:31;300.33;;;154.73;;
1503;SDS011;743;47.076;15.494;2023-02-26T14:04:21;296.50;;;146.98;;
1503;SDS011;743;47.076;15.494;2023-02-26T14:06:52;293.98;;;135.98;;
1503;SDS011;743;47.076;15.494;2023-02-26T14:12:24;115.73;;;90.77;;
1503;SDS011;743;47.076;15.494;2023-02-26T14:18:19;139.98;;;104.57;;
1503;SDS011;743;47.076;15.494;2023-02-26T14:21:42;143.43;;;104.80;;
1503;SDS011;743;47.076;15.494;2023-02-26T14:24:22;128.98;;;100.80;;
1503;SDS011;743;47.076;15.494;2023-02-26T14:27:19;146.32;;;108.68;;
1503;SDS011;743;47.076;15.494;2023-02-26T14:29:57;125.68;;;94.38;;
1503;SDS011;743;47.076;15.494;2023-02-26T14:32:44;126.53;;;100.82;;
1503;SDS011;743;47.076;15.494;2023-02-26T14:35:19;133.60;;;101.68;;
1503;SDS011;743;47.076;15.494;2023-02-26T14:38:00;124.43;;;92.80;;
1503;SDS011;743;47.076;15.494;2023-02-26T14:40:35;134.77;;;110.38;;
1503;SDS011;743;47.076;15.494;2023-02-26T14:43:15;120.75;;;91.25;;
1503;SDS011;743;47.076;15.494;2023-02-26T14:45:58;103.80;;;84.85;;
1503;SDS011;743;47.076;15.494;2023-02-26T14:48:30;126.25;;;101.75;;
1503;SDS011;743;47.076;15.494;2023-02-26T14:51:05;118.53;;;89.57;;
1503;SDS011;743;47.076;15.494;2023-02-26T14:56:51;138.35;;;109.95;;
1503;SDS011;743;47.076;15.494;2023-02-26T14:59:24;130.88;;;104.32;;
1503;SDS011;743;47.076;15.494;2023-02-26T15:02:24;115.40;;;93.82;;
1503;SDS011;743;47.076;15.494;2023-02-26T15:05:08;104.50;;;86.57;;
1503;SDS011;743;47.076;15.494;2023-02-26T15:07:57;111.72;;;88.70;;
1503;SDS011;743;47.076;15.494;2023-02-26T15:10:45;117.82;;;95.70;;
1503;SDS011;743;47.076;15.494;2023-02-26T15:13:34;101.88;;;85.93;;
1503;SDS011;743;47.076;15.494;2023-02-26T15:16:20;120.38;;;97.03;;
1503;SDS011;743;47.076;15.494;2023-02-26T15:19:04;116.47;;;92.70;;
1503;SDS011;743;47.076;15.494;2023-02-26T15:21:50;114.25;;;90.85;;
1503;SDS011;743;47.076;15.494;2023-02-26T15:24:33;68.15;;;60.80;;
1503;SDS011;743;47.076;15.494;2023-02-26T15:27:06;114.45;;;90.35;;
1503;SDS011;743;47.076;15.494;2023-02-26T15:29:39;126.75;;;94.18;;
1503;SDS011;743;47.076;15.494;2023-02-26T15:32:13;113.45;;;89.90;;
1503;SDS011;743;47.076;15.494;2023-02-26T15:35:02;108.38;;;87.13;;
1503;SDS011;743;47.076;15.494;2023-02-26T15:37:42;100.90;;;77.37;;
1503;SDS011;743;47.076;15.494;2023-02-26T15:40:21;132.82;;;100.65;;
1503;SDS011;743;47.076;15.494;2023-02-26T15:42:58;100.85;;;84.50;;
1503;SDS011;743;47.076;15.494;2023-02-26T15:45:30;110.30;;;88.97;;